sensor_id;sensor_type;location;lat;lon;timestamp;pressure;altitude;pressure_sealevel;temperature;humidity
49585;BME280;35491;49.142;9.210;2023-03-03T00:00:00;100155.16;;;5.12;59.28
49585;BME280;35491;49.142;9.210;2023-03-03T00:01:13;100142.75;;;5.13;59.11
49585;BME280;35491;49.142;9.210;2023-03-03T00:02:17;100149.22;;;4.96;59.97
49585;BME280;35491;49.142;9.210;2023-03-03T00:03:21;100147.97;;;4.89;60.21
49585;BME280;35491;49.142;9.210;2023-03-03T00:04:29;100154.84;;;4.78;60.81
49585;BME280;35491;49.142;9.210;2023-03-03T00:05:42;100146.47;;;4.84;60.66
49585;BME280;35491;49.142;9.210;2023-03-03T00:06:46;100150.50;;;4.90;60.37
49585;BME280;35491;49.142;9.210;2023-03-03T00:07:48;100154.00;;;4.91;60.11
49585;BME280;35491;49.142;9.210;2023-03-03T00:08:52;100150.06;;;4.83;60.70
49585;BME280;35491;49.142;9.210;2023-03-03T00:09:55;100150.06;;;4.83;60.65
49585;BME280;35491;49.142;9.210;2023-03-03T00:10:59;100151.00;;;4.82;60.60
49585;BME280;35491;49.142;9.210;2023-03-03T00:12:10;100158.00;;;4.83;60.50
49585;BME280;35491;49.142;9.210;2023-03-03T00:13:21;100152.06;;;4.80;60.43
49585;BME280;35491;49.142;9.210;2023-03-03T00:14:25;100152.31;;;4.77;60.47
49585;BME280;35491;49.142;9.210;2023-03-03T00:15:31;100159.81;;;4.70;60.80
49585;BME280;35491;49.142;9.210;2023-03-03T00:16:34;100155.78;;;4.64;60.94
49585;BME280;35491;49.142;9.210;2023-03-03T00:17:40;100156.63;;;4.65;60.94
49585;BME280;35491;49.142;9.210;2023-03-03T00:20:28;100153.25;;;4.63;61.06
49585;BME280;35491;49.142;9.210;2023-03-03T00:21:39;100155.13;;;4.61;60.75
49585;BME280;35491;49.142;9.210;2023-03-03T00:22:43;100156.91;;;4.60;61.19
49585;BME280;35491;49.142;9.210;2023-03-03T00:23:51;100154.28;;;4.60;60.76
49585;BME280;35491;49.142;9.210;2023-03-03T00:24:55;100157.69;;;4.62;60.83
49585;BME280;35491;49.142;9.210;2023-03-03T00:26:01;100152.19;;;4.65;60.72
49585;BME280;35491;49.142;9.210;2023-03-03T00:27:08;100155.47;;;4.69;60.42
49585;BME280;35491;49.142;9.210;2023-03-03T00:28:21;100151.94;;;4.68;60.51
49585;BME280;35491;49.142;9.210;2023-03-03T00:29:33;100151.22;;;4.66;60.94
49585;BME280;35491;49.142;9.210;2023-03-03T00:30:38;100159.81;;;4.70;60.48
49585;BME280;35491;49.142;9.210;2023-03-03T00:31:39;100158.31;;;4.66;60.85
49585;BME280;35491;49.142;9.210;2023-03-03T00:32:44;100154.38;;;4.59;61.23
49585;BME280;35491;49.142;9.210;2023-03-03T00:33:47;100161.47;;;4.58;61.24
49585;BME280;35491;49.142;9.210;2023-03-03T00:34:55;100164.97;;;4.59;60.90
49585;BME280;35491;49.142;9.210;2023-03-03T00:36:22;100154.50;;;4.57;61.33
49585;BME280;35491;49.142;9.210;2023-03-03T00:37:29;100164.66;;;4.50;61.71
49585;BME280;35491;49.142;9.210;2023-03-03T00:38:31;100167.38;;;4.49;61.54
49585;BME280;35491;49.142;9.210;2023-03-03T00:39:37;100164.72;;;4.49;61.42
49585;BME280;35491;49.142;9.210;2023-03-03T00:40:39;100174.03;;;4.42;62.01
49585;BME280;35491;49.142;9.210;2023-03-03T00:41:43;100168.56;;;4.45;61.76
49585;BME280;35491;49.142;9.210;2023-03-03T00:42:45;100171.41;;;4.42;61.87
49585;BME280;35491;49.142;9.210;2023-03-03T00:43:49;100161.44;;;4.45;61.80
49585;BME280;35491;49.142;9.210;2023-03-03T00:44:54;100165.91;;;4.45;61.87
49585;BME280;35491;49.142;9.210;2023-03-03T00:45:58;100166.53;;;4.48;61.43
49585;BME280;35491;49.142;9.210;2023-03-03T00:47:02;100163.16;;;4.46;61.78
49585;BME280;35491;49.142;9.210;2023-03-03T00:48:23;100168.66;;;4.43;61.49
49585;BME280;35491;49.142;9.210;2023-03-03T00:49:27;100164.63;;;4.37;62.07
49585;BME280;35491;49.142;9.210;2023-03-03T00:50:29;100160.16;;;4.38;61.70
49585;BME280;35491;49.142;9.210;2023-03-03T00:51:36;100164.72;;;4.36;62.11
49585;BME280;35491;49.142;9.210;2023-03-03T00:52:40;100170.53;;;4.28;62.17
49585;BME280;35491;49.142;9.210;2023-03-03T00:53:47;100164.38;;;4.28;62.18
49585;BME280;35491;49.142;9.210;2023-03-03T00:54:51;100168.91;;;4.26;62.08
49585;BME280;35491;49.142;9.210;2023-03-03T00:55:53;100165.31;;;4.27;62.05
49585;BME280;35491;49.142;9.210;2023-03-03T00:56:57;100166.50;;;4.22;62.21
49585;BME280;35491;49.142;9.210;2023-03-03T00:57:58;100179.16;;;4.17;62.27
49585;BME280;35491;49.142;9.210;2023-03-03T00:59:03;100176.81;;;4.13;62.40
49585;BME280;35491;49.142;9.210;2023-03-03T01:00:08;100173.94;;;4.03;62.79
49585;BME280;35491;49.142;9.210;2023-03-03T01:01:09;100178.47;;;4.01;62.88
49585;BME280;35491;49.142;9.210;2023-03-03T01:02:13;100164.09;;;4.05;62.59
49585;BME280;35491;49.142;9.210;2023-03-03T01:03:15;100172.03;;;4.05;62.47
49585;BME280;35491;49.142;9.210;2023-03-03T01:04:19;100174.75;;;4.03;62.38
49585;BME280;35491;49.142;9.210;2023-03-03T01:05:20;100171.28;;;4.03;62.73
49585;BME280;35491;49.142;9.210;2023-03-03T01:06:22;100169.47;;;4.03;62.87
49585;BME280;35491;49.142;9.210;2023-03-03T01:07:28;100173.81;;;4.04;62.54
49585;BME280;35491;49.142;9.210;2023-03-03T01:08:29;100163.88;;;4.08;62.32
49585;BME280;35491;49.142;9.210;2023-03-03T01:09:34;100170.78;;;4.11;62.18
49585;BME280;35491;49.142;9.210;2023-03-03T01:10:36;100178.81;;;4.09;62.44
49585;BME280;35491;49.142;9.210;2023-03-03T01:11:40;100165.59;;;4.09;62.46
49585;BME280;35491;49.142;9.210;2023-03-03T01:12:41;100169.19;;;4.08;62.35
49585;BME280;35491;49.142;9.210;2023-03-03T01:13:45;100168.53;;;4.04;62.91
49585;BME280;35491;49.142;9.210;2023-03-03T01:14:47;100170.63;;;3.99;62.99
49585;BME280;35491;49.142;9.210;2023-03-03T01:15:52;100160.88;;;4.00;62.86
49585;BME280;35491;49.142;9.210;2023-03-03T01:16:53;100161.53;;;4.03;62.59
49585;BME280;35491;49.142;9.210;2023-03-03T01:17:57;100158.88;;;4.03;62.76
49585;BME280;35491;49.142;9.210;2023-03-03T01:18:58;100152.88;;;4.01;62.98
49585;BME280;35491;49.142;9.210;2023-03-03T01:20:02;100157.31;;;4.01;63.14
49585;BME280;35491;49.142;9.210;2023-03-03T01:21:05;100159.94;;;4.01;62.79
49585;BME280;35491;49.142;9.210;2023-03-03T01:22:09;100167.03;;;4.00;63.11
49585;BME280;35491;49.142;9.210;2023-03-03T01:23:12;100157.31;;;4.01;63.13
49585;BME280;35491;49.142;9.210;2023-03-03T01:24:16;100163.47;;;4.01;63.10
49585;BME280;35491;49.142;9.210;2023-03-03T01:25:17;100154.84;;;3.98;63.47
49585;BME280;35491;49.142;9.210;2023-03-03T01:26:21;100157.59;;;3.96;63.51
49585;BME280;35491;49.142;9.210;2023-03-03T01:27:22;100151.66;;;3.93;63.76
49585;BME280;35491;49.142;9.210;2023-03-03T01:28:28;100151.84;;;3.89;63.73
49585;BME280;35491;49.142;9.210;2023-03-03T01:29:29;100159.78;;;3.89;63.69
49585;BME280;35491;49.142;9.210;2023-03-03T01:30:33;100160.53;;;3.92;63.27
49585;BME280;35491;49.142;9.210;2023-03-03T01:31:34;100151.66;;;3.93;63.12
49585;BME280;35491;49.142;9.210;2023-03-03T01:32:38;100157.78;;;3.93;62.99
49585;BME280;35491;49.142;9.210;2023-03-03T01:33:39;100154.13;;;3.96;62.94
49585;BME280;35491;49.142;9.210;2023-03-03T01:34:43;100154.97;;;3.96;62.80
49585;BME280;35491;49.142;9.210;2023-03-03T01:35:44;100154.84;;;3.98;63.10
49585;BME280;35491;49.142;9.210;2023-03-03T01:36:48;100148.16;;;3.92;63.33
49585;BME280;35491;49.142;9.210;2023-03-03T01:37:49;100156.94;;;3.93;63.43
49585;BME280;35491;49.142;9.210;2023-03-03T01:38:56;100154.31;;;3.93;63.33
49585;BME280;35491;49.142;9.210;2023-03-03T01:39:57;100152.72;;;3.90;63.25
49585;BME280;35491;49.142;9.210;2023-03-03T01:41:02;100154.41;;;3.91;63.15
49585;BME280;35491;49.142;9.210;2023-03-03T01:42:03;100155.25;;;3.92;63.41
49585;BME280;35491;49.142;9.210;2023-03-03T01:43:07;100153.56;;;3.90;63.32
49585;BME280;35491;49.142;9.210;2023-03-03T01:44:09;100152.38;;;3.82;63.76
49585;BME280;35491;49.142;9.210;2023-03-03T01:45:19;100156.03;;;3.79;63.85
49585;BME280;35491;49.142;9.210;2023-03-03T01:46:29;100154.16;;;3.81;63.80
49585;BME280;35491;49.142;9.210;2023-03-03T01:47:35;100154.25;;;3.80;63.58
49585;BME280;35491;49.142;9.210;2023-03-03T01:48:37;100155.31;;;3.77;64.00
49585;BME280;35491;49.142;9.210;2023-03-03T01:49:43;100153.53;;;3.63;65.00
49585;BME280;35491;49.142;9.210;2023-03-03T01:50:49;100152.59;;;3.50;65.68
49585;BME280;35491;49.142;9.210;2023-03-03T01:51:55;100156.22;;;3.34;66.35
49585;BME280;35491;49.142;9.210;2023-03-03T01:52:58;100162.38;;;3.20;67.08
49585;BME280;35491;49.142;9.210;2023-03-03T01:54:08;100157.09;;;3.20;66.92
49585;BME280;35491;49.142;9.210;2023-03-03T01:55:13;100158.75;;;3.21;66.94
49585;BME280;35491;49.142;9.210;2023-03-03T01:56:17;100158.19;;;3.16;67.06
49585;BME280;35491;49.142;9.210;2023-03-03T01:57:22;100157.09;;;3.20;67.04
49585;BME280;35491;49.142;9.210;2023-03-03T01:58:28;100155.38;;;3.19;67.13
49585;BME280;35491;49.142;9.210;2023-03-03T01:59:31;100155.16;;;3.22;66.80
49585;BME280;35491;49.142;9.210;2023-03-03T02:00:37;100156.69;;;3.26;66.30
49585;BME280;35491;49.142;9.210;2023-03-03T02:01:39;100163.84;;;3.24;66.34
49585;BME280;35491;49.142;9.210;2023-03-03T02:02:43;100159.50;;;3.23;66.38
49585;BME280;35491;49.142;9.210;2023-03-03T02:03:45;100160.09;;;3.28;66.14
49585;BME280;35491;49.142;9.210;2023-03-03T02:04:49;100160.56;;;3.35;65.95
49585;BME280;35491;49.142;9.210;2023-03-03T02:05:51;100154.03;;;3.41;65.79
49585;BME280;35491;49.142;9.210;2023-03-03T02:06:57;100159.88;;;3.46;65.32
49585;BME280;35491;49.142;9.210;2023-03-03T02:08:01;100161.38;;;3.50;65.50
49585;BME280;35491;49.142;9.210;2023-03-03T02:09:08;100158.56;;;3.53;65.26
49585;BME280;35491;49.142;9.210;2023-03-03T02:10:12;100159.78;;;3.48;65.24
49585;BME280;35491;49.142;9.210;2023-03-03T02:11:16;100166.28;;;3.42;65.29
49585;BME280;35491;49.142;9.210;2023-03-03T02:12:18;100161.13;;;3.40;65.37
49585;BME280;35491;49.142;9.210;2023-03-03T02:13:23;100158.38;;;3.42;65.36
49585;BME280;35491;49.142;9.210;2023-03-03T02:14:24;100160.66;;;3.48;65.14
49585;BME280;35491;49.142;9.210;2023-03-03T02:15:28;100157.78;;;3.51;65.15
49585;BME280;35491;49.142;9.210;2023-03-03T02:16:31;100155.06;;;3.53;64.82
49585;BME280;35491;49.142;9.210;2023-03-03T02:17:35;100162.06;;;3.54;64.93
49585;BME280;35491;49.142;9.210;2023-03-03T02:18:36;100160.44;;;3.51;65.30
49585;BME280;35491;49.142;9.210;2023-03-03T02:19:42;100163.84;;;3.53;65.05
49585;BME280;35491;49.142;9.210;2023-03-03T02:20:50;100161.31;;;3.52;65.22
49585;BME280;35491;49.142;9.210;2023-03-03T02:21:56;100155.91;;;3.53;64.84
49585;BME280;35491;49.142;9.210;2023-03-03T02:22:59;100161.19;;;3.53;64.98
49585;BME280;35491;49.142;9.210;2023-03-03T02:24:11;100153.25;;;3.53;64.96
49585;BME280;35491;49.142;9.210;2023-03-03T02:25:15;100154.13;;;3.54;65.06
49585;BME280;35491;49.142;9.210;2023-03-03T02:26:24;100147.50;;;3.47;65.37
49585;BME280;35491;49.142;9.210;2023-03-03T02:27:26;100150.44;;;3.42;65.73
49585;BME280;35491;49.142;9.210;2023-03-03T02:28:32;100153.38;;;3.37;65.66
49585;BME280;35491;49.142;9.210;2023-03-03T02:29:33;100159.72;;;3.35;65.43
49585;BME280;35491;49.142;9.210;2023-03-03T02:30:37;100162.34;;;3.35;65.68
49585;BME280;35491;49.142;9.210;2023-03-03T02:31:39;100151.00;;;3.33;65.31
49585;BME280;35491;49.142;9.210;2023-03-03T02:32:43;100158.09;;;3.32;65.37
49585;BME280;35491;49.142;9.210;2023-03-03T02:33:45;100152.25;;;3.27;65.70
49585;BME280;35491;49.142;9.210;2023-03-03T02:34:49;100160.47;;;3.22;65.91
49585;BME280;35491;49.142;9.210;2023-03-03T02:35:51;100155.16;;;3.22;65.93
49585;BME280;35491;49.142;9.210;2023-03-03T02:36:55;100157.81;;;3.22;65.80
49585;BME280;35491;49.142;9.210;2023-03-03T02:37:58;100156.97;;;3.22;65.76
49585;BME280;35491;49.142;9.210;2023-03-03T02:39:06;100155.56;;;3.16;66.04
49585;BME280;35491;49.142;9.210;2023-03-03T02:40:11;100151.31;;;3.14;66.05
49585;BME280;35491;49.142;9.210;2023-03-03T02:41:17;100157.38;;;3.16;66.05
49585;BME280;35491;49.142;9.210;2023-03-03T02:42:27;100158.03;;;3.19;65.91
49585;BME280;35491;49.142;9.210;2023-03-03T02:43:30;100173.00;;;3.19;66.08
49585;BME280;35491;49.142;9.210;2023-03-03T02:44:35;100158.97;;;3.18;65.99
49585;BME280;35491;49.142;9.210;2023-03-03T02:45:42;100169.59;;;3.17;66.07
49585;BME280;35491;49.142;9.210;2023-03-03T02:46:46;100163.66;;;3.13;66.21
49585;BME280;35491;49.142;9.210;2023-03-03T02:47:50;100165.75;;;3.08;66.46
49585;BME280;35491;49.142;9.210;2023-03-03T02:48:54;100163.41;;;3.03;67.08
49585;BME280;35491;49.142;9.210;2023-03-03T02:49:58;100161.03;;;2.99;67.26
49585;BME280;35491;49.142;9.210;2023-03-03T02:51:02;100165.81;;;2.92;67.81
49585;BME280;35491;49.142;9.210;2023-03-03T02:52:04;100164.06;;;2.92;67.52
49585;BME280;35491;49.142;9.210;2023-03-03T02:53:09;100163.94;;;2.94;67.06
49585;BME280;35491;49.142;9.210;2023-03-03T02:54:11;100159.50;;;2.94;66.97
49585;BME280;35491;49.142;9.210;2023-03-03T02:55:15;100166.50;;;2.95;67.08
49585;BME280;35491;49.142;9.210;2023-03-03T02:56:17;100163.47;;;2.87;67.34
49585;BME280;35491;49.142;9.210;2023-03-03T02:57:20;100164.63;;;2.83;67.66
49585;BME280;35491;49.142;9.210;2023-03-03T02:58:25;100164.69;;;2.81;67.82
49585;BME280;35491;49.142;9.210;2023-03-03T02:59:29;100164.63;;;2.83;67.24
49585;BME280;35491;49.142;9.210;2023-03-03T03:00:31;100170.06;;;2.80;67.52
49585;BME280;35491;49.142;9.210;2023-03-03T03:01:35;100168.34;;;2.79;67.55
49585;BME280;35491;49.142;9.210;2023-03-03T03:02:36;100173.81;;;2.76;67.78
49585;BME280;35491;49.142;9.210;2023-03-03T03:03:40;100169.41;;;2.76;67.43
49585;BME280;35491;49.142;9.210;2023-03-03T03:04:41;100164.97;;;2.77;67.57
49585;BME280;35491;49.142;9.210;2023-03-03T03:05:45;100170.06;;;2.80;67.50
49585;BME280;35491;49.142;9.210;2023-03-03T03:06:46;100164.78;;;2.80;67.43
49585;BME280;35491;49.142;9.210;2023-03-03T03:07:50;100170.06;;;2.80;67.13
49585;BME280;35491;49.142;9.210;2023-03-03T03:08:51;100160.53;;;2.77;67.47
49585;BME280;35491;49.142;9.210;2023-03-03T03:09:55;100167.59;;;2.77;67.77
49585;BME280;35491;49.142;9.210;2023-03-03T03:10:56;100163.34;;;2.74;67.87
49585;BME280;35491;49.142;9.210;2023-03-03T03:12:00;100170.34;;;2.75;67.73
49585;BME280;35491;49.142;9.210;2023-03-03T03:13:02;100167.81;;;2.74;67.82
49585;BME280;35491;49.142;9.210;2023-03-03T03:14:09;100164.13;;;2.76;67.28
49585;BME280;35491;49.142;9.210;2023-03-03T03:15:10;100172.88;;;2.77;67.34
49585;BME280;35491;49.142;9.210;2023-03-03T03:16:15;100164.13;;;2.76;67.47
49585;BME280;35491;49.142;9.210;2023-03-03T03:17:16;100169.31;;;2.78;67.44
49585;BME280;35491;49.142;9.210;2023-03-03T03:18:20;100173.63;;;2.79;67.56
49585;BME280;35491;49.142;9.210;2023-03-03T03:19:21;100173.63;;;2.79;67.51
49585;BME280;35491;49.142;9.210;2023-03-03T03:20:25;100168.34;;;2.79;67.25
49585;BME280;35491;49.142;9.210;2023-03-03T03:21:26;100164.78;;;2.80;67.15
49585;BME280;35491;49.142;9.210;2023-03-03T03:22:30;100166.50;;;2.81;67.27
49585;BME280;35491;49.142;9.210;2023-03-03T03:23:32;100169.91;;;2.83;67.20
49585;BME280;35491;49.142;9.210;2023-03-03T03:24:36;100171.56;;;2.84;67.21
49585;BME280;35491;49.142;9.210;2023-03-03T03:25:37;100166.56;;;2.79;67.61
49585;BME280;35491;49.142;9.210;2023-03-03T03:26:45;100175.34;;;2.80;67.46
49585;BME280;35491;49.142;9.210;2023-03-03T03:27:46;100179.59;;;2.83;67.06
49585;BME280;35491;49.142;9.210;2023-03-03T03:28:50;100177.81;;;2.83;67.15
49585;BME280;35491;49.142;9.210;2023-03-03T03:29:54;100175.19;;;2.83;66.85
49585;BME280;35491;49.142;9.210;2023-03-03T03:30:58;100177.06;;;2.81;67.21
49585;BME280;35491;49.142;9.210;2023-03-03T03:32:00;100176.09;;;2.82;66.84
49585;BME280;35491;49.142;9.210;2023-03-03T03:33:04;100178.91;;;2.79;67.09
49585;BME280;35491;49.142;9.210;2023-03-03T03:34:06;100173.63;;;2.79;67.08
49585;BME280;35491;49.142;9.210;2023-03-03T03:35:10;100168.75;;;2.73;67.79
49585;BME280;35491;49.142;9.210;2023-03-03T03:36:11;100174.38;;;2.67;67.94
49585;BME280;35491;49.142;9.210;2023-03-03T03:37:16;100172.66;;;2.65;67.87
49585;BME280;35491;49.142;9.210;2023-03-03T03:38:18;100175.41;;;2.64;67.80
49585;BME280;35491;49.142;9.210;2023-03-03T03:39:22;100175.31;;;2.65;67.69
49585;BME280;35491;49.142;9.210;2023-03-03T03:40:24;100167.59;;;2.62;67.80
49585;BME280;35491;49.142;9.210;2023-03-03T03:41:28;100172.94;;;2.61;67.92
49585;BME280;35491;49.142;9.210;2023-03-03T03:42:29;100176.50;;;2.60;67.74
49585;BME280;35491;49.142;9.210;2023-03-03T03:43:33;100177.75;;;2.54;68.04
49585;BME280;35491;49.142;9.210;2023-03-03T03:44:35;100182.59;;;2.46;68.66
49585;BME280;35491;49.142;9.210;2023-03-03T03:45:43;100179.13;;;2.45;68.74
49585;BME280;35491;49.142;9.210;2023-03-03T03:46:45;100181.00;;;2.43;68.73
49585;BME280;35491;49.142;9.210;2023-03-03T03:47:51;100182.78;;;2.43;68.31
49585;BME280;35491;49.142;9.210;2023-03-03T03:48:53;100184.50;;;2.44;68.52
49585;BME280;35491;49.142;9.210;2023-03-03T03:49:58;100187.03;;;2.45;68.15
49585;BME280;35491;49.142;9.210;2023-03-03T03:50:59;100179.03;;;2.47;68.11
49585;BME280;35491;49.142;9.210;2023-03-03T03:52:04;100182.44;;;2.49;67.94
49585;BME280;35491;49.142;9.210;2023-03-03T03:53:05;100183.63;;;2.43;68.26
49585;BME280;35491;49.142;9.210;2023-03-03T03:54:15;100184.66;;;2.41;68.66
49585;BME280;35491;49.142;9.210;2023-03-03T03:55:17;100189.19;;;2.39;68.61
49585;BME280;35491;49.142;9.210;2023-03-03T03:56:22;100187.22;;;2.42;68.54
49585;BME280;35491;49.142;9.210;2023-03-03T03:57:23;100198.63;;;2.43;68.65
49585;BME280;35491;49.142;9.210;2023-03-03T03:58:28;100189.78;;;2.44;68.22
49585;BME280;35491;49.142;9.210;2023-03-03T03:59:29;100187.41;;;2.39;68.42
49585;BME280;35491;49.142;9.210;2023-03-03T04:00:33;100193.69;;;2.37;68.84
49585;BME280;35491;49.142;9.210;2023-03-03T04:01:38;100197.28;;;2.36;68.87
49585;BME280;35491;49.142;9.210;2023-03-03T04:02:42;100197.28;;;2.36;68.76
49585;BME280;35491;49.142;9.210;2023-03-03T04:03:44;100193.22;;;2.30;68.87
49585;BME280;35491;49.142;9.210;2023-03-03T04:04:49;100191.69;;;2.26;69.36
49585;BME280;35491;49.142;9.210;2023-03-03T04:05:51;100194.31;;;2.26;69.03
49585;BME280;35491;49.142;9.210;2023-03-03T04:06:55;100188.19;;;2.25;69.33
49585;BME280;35491;49.142;9.210;2023-03-03T04:07:57;100196.94;;;2.26;68.80
49585;BME280;35491;49.142;9.210;2023-03-03T04:09:01;100188.19;;;2.25;68.95
49585;BME280;35491;49.142;9.210;2023-03-03T04:10:03;100191.00;;;2.22;69.38
49585;BME280;35491;49.142;9.210;2023-03-03T04:11:08;100195.50;;;2.20;69.33
49585;BME280;35491;49.142;9.210;2023-03-03T04:12:09;100198.16;;;2.20;69.41
49585;BME280;35491;49.142;9.210;2023-03-03T04:13:14;100195.59;;;2.18;69.55
49585;BME280;35491;49.142;9.210;2023-03-03T04:14:15;100200.13;;;2.16;69.49
49585;BME280;35491;49.142;9.210;2023-03-03T04:15:20;100200.88;;;2.18;69.48
49585;BME280;35491;49.142;9.210;2023-03-03T04:16:23;100200.88;;;2.18;69.48
49585;BME280;35491;49.142;9.210;2023-03-03T04:17:30;100191.28;;;2.17;69.51
49585;BME280;35491;49.142;9.210;2023-03-03T04:18:32;100203.63;;;2.17;69.24
49585;BME280;35491;49.142;9.210;2023-03-03T04:19:36;100191.16;;;2.19;69.30
49585;BME280;35491;49.142;9.210;2023-03-03T04:20:38;100197.47;;;2.16;69.41
49585;BME280;35491;49.142;9.210;2023-03-03T04:21:42;100193.06;;;2.17;69.11
49585;BME280;35491;49.142;9.210;2023-03-03T04:22:44;100198.34;;;2.17;69.16
49585;BME280;35491;49.142;9.210;2023-03-03T04:23:48;100198.16;;;2.20;68.82
49585;BME280;35491;49.142;9.210;2023-03-03T04:24:50;100197.13;;;2.23;68.83
49585;BME280;35491;49.142;9.210;2023-03-03T04:25:54;100194.41;;;2.24;68.62
49585;BME280;35491;49.142;9.210;2023-03-03T04:26:55;100198.75;;;2.25;68.48
49585;BME280;35491;49.142;9.210;2023-03-03T04:27:59;100210.41;;;2.21;68.68
49585;BME280;35491;49.142;9.210;2023-03-03T04:29:00;100206.06;;;2.20;68.52
49585;BME280;35491;49.142;9.210;2023-03-03T04:30:05;100207.94;;;2.18;68.67
49585;BME280;35491;49.142;9.210;2023-03-03T04:31:07;100206.06;;;2.20;68.64
49585;BME280;35491;49.142;9.210;2023-03-03T04:32:11;100204.19;;;2.22;68.41
49585;BME280;35491;49.142;9.210;2023-03-03T04:33:15;100205.81;;;2.25;68.53
49585;BME280;35491;49.142;9.210;2023-03-03T04:34:19;100205.72;;;2.26;68.60
49585;BME280;35491;49.142;9.210;2023-03-03T04:35:21;100203.53;;;2.18;68.96
49585;BME280;35491;49.142;9.210;2023-03-03T04:36:25;100208.78;;;2.18;68.72
49585;BME280;35491;49.142;9.210;2023-03-03T04:37:29;100202.66;;;2.18;68.81
49585;BME280;35491;49.142;9.210;2023-03-03T04:38:31;100200.22;;;2.15;68.80
49585;BME280;35491;49.142;9.210;2023-03-03T04:39:35;100203.78;;;2.14;68.96
49585;BME280;35491;49.142;9.210;2023-03-03T04:40:38;100202.75;;;2.16;68.81
49585;BME280;35491;49.142;9.210;2023-03-03T04:41:43;100200.22;;;2.15;68.80
49585;BME280;35491;49.142;9.210;2023-03-03T04:42:45;100196.72;;;2.14;68.66
49585;BME280;35491;49.142;9.210;2023-03-03T04:43:50;100190.75;;;2.11;68.56
49585;BME280;35491;49.142;9.210;2023-03-03T04:44:51;100190.00;;;2.09;68.94
49585;BME280;35491;49.142;9.210;2023-03-03T04:45:57;100200.13;;;2.00;69.08
49585;BME280;35491;49.142;9.210;2023-03-03T04:46:58;100201.25;;;1.96;69.00
49585;BME280;35491;49.142;9.210;2023-03-03T04:48:03;100197.69;;;1.97;68.79
49585;BME280;35491;49.142;9.210;2023-03-03T04:49:07;100199.38;;;1.98;68.54
49585;BME280;35491;49.142;9.210;2023-03-03T04:50:12;100195.78;;;1.99;68.64
49585;BME280;35491;49.142;9.210;2023-03-03T04:51:13;100195.78;;;1.99;68.42
49585;BME280;35491;49.142;9.210;2023-03-03T04:52:18;100197.59;;;1.99;68.48
49585;BME280;35491;49.142;9.210;2023-03-03T04:53:20;100196.56;;;2.01;68.63
49585;BME280;35491;49.142;9.210;2023-03-03T04:54:24;100193.91;;;2.01;68.64
49585;BME280;35491;49.142;9.210;2023-03-03T04:55:28;100198.41;;;1.99;68.70
49585;BME280;35491;49.142;9.210;2023-03-03T04:56:37;100204.56;;;2.00;68.43
49585;BME280;35491;49.142;9.210;2023-03-03T04:57:42;100209.16;;;1.96;68.60
49585;BME280;35491;49.142;9.210;2023-03-03T04:58:49;100202.84;;;1.99;68.55
49585;BME280;35491;49.142;9.210;2023-03-03T04:59:55;100204.66;;;1.98;68.40
49585;BME280;35491;49.142;9.210;2023-03-03T05:01:04;100207.34;;;1.97;68.44
49585;BME280;35491;49.142;9.210;2023-03-03T05:02:12;100208.28;;;1.96;68.42
49585;BME280;35491;49.142;9.210;2023-03-03T05:03:16;100210.25;;;1.92;68.61
49585;BME280;35491;49.142;9.210;2023-03-03T05:04:25;100217.38;;;1.90;68.68
49585;BME280;35491;49.142;9.210;2023-03-03T05:05:26;100213.25;;;1.86;68.86
49585;BME280;35491;49.142;9.210;2023-03-03T05:06:31;100219.44;;;1.85;68.82
49585;BME280;35491;49.142;9.210;2023-03-03T05:07:32;100212.47;;;1.84;68.70
49585;BME280;35491;49.142;9.210;2023-03-03T05:08:36;100222.19;;;1.83;68.57
49585;BME280;35491;49.142;9.210;2023-03-03T05:09:38;100226.59;;;1.83;68.72
49585;BME280;35491;49.142;9.210;2023-03-03T05:10:42;100222.19;;;1.83;68.92
49585;BME280;35491;49.142;9.210;2023-03-03T05:11:45;100222.25;;;1.82;68.66
49585;BME280;35491;49.142;9.210;2023-03-03T05:12:49;100222.44;;;1.79;69.05
49585;BME280;35491;49.142;9.210;2023-03-03T05:13:51;100224.03;;;1.81;69.02
49585;BME280;35491;49.142;9.210;2023-03-03T05:14:56;100225.06;;;1.79;69.04
49585;BME280;35491;49.142;9.210;2023-03-03T05:15:57;100221.47;;;1.80;69.12
49585;BME280;35491;49.142;9.210;2023-03-03T05:17:01;100225.91;;;1.79;68.81
49585;BME280;35491;49.142;9.210;2023-03-03T05:18:04;100230.84;;;1.69;69.37
49585;BME280;35491;49.142;9.210;2023-03-03T05:19:08;100232.84;;;1.64;69.07
49585;BME280;35491;49.142;9.210;2023-03-03T05:20:13;100236.19;;;1.68;69.15
49585;BME280;35491;49.142;9.210;2023-03-03T05:21:18;100235.16;;;1.70;68.98
49585;BME280;35491;49.142;9.210;2023-03-03T05:22:19;100228.38;;;1.66;69.08
49585;BME280;35491;49.142;9.210;2023-03-03T05:23:23;100233.25;;;1.56;69.58
49585;BME280;35491;49.142;9.210;2023-03-03T05:24:25;100234.22;;;1.55;69.80
49585;BME280;35491;49.142;9.210;2023-03-03T05:25:29;100231.50;;;1.57;69.22
49585;BME280;35491;49.142;9.210;2023-03-03T05:26:31;100235.59;;;1.63;69.07
49585;BME280;35491;49.142;9.210;2023-03-03T05:27:35;100239.84;;;1.65;68.91
49585;BME280;35491;49.142;9.210;2023-03-03T05:28:37;100232.69;;;1.67;68.84
49585;BME280;35491;49.142;9.210;2023-03-03T05:29:41;100229.88;;;1.70;68.80
49585;BME280;35491;49.142;9.210;2023-03-03T05:30:42;100231.53;;;1.73;68.71
49585;BME280;35491;49.142;9.210;2023-03-03T05:31:47;100237.63;;;1.74;68.52
49585;BME280;35491;49.142;9.210;2023-03-03T05:32:48;100229.81;;;1.72;68.34
49585;BME280;35491;49.142;9.210;2023-03-03T05:33:53;100227.09;;;1.74;68.61
49585;BME280;35491;49.142;9.210;2023-03-03T05:34:55;100232.44;;;1.72;68.23
49585;BME280;35491;49.142;9.210;2023-03-03T05:36:02;100233.22;;;1.74;68.30
49585;BME280;35491;49.142;9.210;2023-03-03T05:37:03;100238.75;;;1.69;68.60
49585;BME280;35491;49.142;9.210;2023-03-03T05:38:08;100236.28;;;1.66;68.70
49585;BME280;35491;49.142;9.210;2023-03-03T05:39:10;100244.28;;;1.65;68.72
49585;BME280;35491;49.142;9.210;2023-03-03T05:40:14;100236.28;;;1.66;68.89